Time;durP1;ratioP1;P1;durP2;ratioP2;P2;SDS_P1;SDS_P2;PMS_P1;PMS_P2;Temp;Humidity;BMP_temperature;BMP_pressure;BME280_temperature;BME280_humidity;BME280_pressure;Samples;Min_cycle;Max_cycle;Signal;HPM_P1;HPM_P2
2023/10/27 00:00:07;;;;;;;48.92;27.23;;;;;;;9.40;100.00;99104.66;5035331;28;20419;-68
2023/10/27 00:02:36;;;;;;;47.28;26.63;;;;;;;9.38;100.00;99106.44;5035451;28;20037;-69
2023/10/27 00:05:02;;;;;;;47.65;25.98;;;;;;;9.39;100.00;99109.94;5035201;28;20068;-68
2023/10/27 00:07:27;;;;;;;47.38;26.55;;;;;;;9.38;100.00;99103.81;5035422;28;20064;-69
2023/10/27 00:09:52;;;;;;;47.55;27.25;;;;;;;9.37;100.00;99104.72;5035347;28;20032;-69
2023/10/27 00:12:18;;;;;;;49.45;26.67;;;;;;;9.36;100.00;99103.00;5034665;28;20091;-69
2023/10/27 00:14:43;;;;;;;47.05;26.80;;;;;;;9.37;100.00;99104.72;5035012;28;20068;-69
2023/10/27 00:17:08;;;;;;;50.45;27.67;;;;;;;9.36;100.00;99097.72;5035232;28;20538;-69
2023/10/27 00:19:34;;;;;;;47.90;26.98;;;;;;;9.36;100.00;99100.34;5034805;28;20543;-69
2023/10/27 00:21:59;;;;;;;48.97;28.02;;;;;;;9.37;100.00;99104.72;5034866;28;20029;-69
2023/10/27 00:24:25;;;;;;;49.55;27.83;;;;;;;9.36;100.00;99096.81;5035155;28;20535;-69
2023/10/27 00:26:50;;;;;;;48.60;27.23;;;;;;;9.35;100.00;99101.25;5035089;28;20508;-69
2023/10/27 00:29:16;;;;;;;46.97;27.30;;;;;;;9.35;100.00;99090.69;5033800;28;20025;-69
2023/10/27 00:31:41;;;;;;;48.67;27.25;;;;;;;9.34;100.00;99094.22;5034750;28;20024;-69
2023/10/27 00:34:06;;;;;;;49.10;27.65;;;;;;;9.34;100.00;99094.22;5034657;28;20041;-69
2023/10/27 00:36:32;;;;;;;49.65;28.70;;;;;;;9.35;100.00;99089.81;5034809;28;20029;-67
2023/10/27 00:38:57;;;;;;;50.30;28.00;;;;;;;9.36;100.00;99092.44;5066587;28;20457;-67
2023/10/27 00:41:24;;;;;;;49.33;28.98;;;;;;;9.37;100.00;99083.59;5034527;28;20037;-67
2023/10/27 00:43:49;;;;;;;50.55;28.63;;;;;;;9.37;100.00;99085.38;5034762;28;20025;-69
2023/10/27 00:46:14;;;;;;;50.13;29.52;;;;;;;9.37;100.00;99088.88;5034437;28;20033;-68
2023/10/27 00:48:40;;;;;;;48.72;29.15;;;;;;;9.36;100.00;99083.63;5034469;28;20128;-68
2023/10/27 00:51:06;;;;;;;47.47;27.52;;;;;;;9.39;100.00;99083.56;5034246;28;20474;-68
2023/10/27 00:53:32;;;;;;;49.38;28.27;;;;;;;9.39;100.00;99084.47;5034366;28;20488;-67
2023/10/27 00:55:58;;;;;;;49.00;28.08;;;;;;;9.40;100.00;99082.69;5034401;28;20029;-69
2023/10/27 00:58:24;;;;;;;51.08;29.40;;;;;;;9.42;100.00;99070.31;5034375;28;20416;-69
2023/10/27 01:00:51;;;;;;;48.50;26.70;;;;;;;9.44;100.00;99087.00;5034175;28;20026;-69
2023/10/27 01:03:16;;;;;;;47.83;28.05;;;;;;;9.43;100.00;99072.94;5034171;28;20034;-69
2023/10/27 01:05:42;;;;;;;47.40;28.15;;;;;;;9.42;100.00;99071.22;5034239;28;20484;-68
2023/10/27 01:08:07;;;;;;;47.28;26.55;;;;;;;9.43;100.00;99072.94;5028774;28;20037;-68
2023/10/27 01:10:33;;;;;;;45.03;26.40;;;;;;;9.43;100.00;99072.94;5033949;28;20071;-68
2023/10/27 01:12:58;;;;;;;46.50;26.77;;;;;;;9.46;100.00;99073.78;5034139;28;20029;-69
2023/10/27 01:15:24;;;;;;;47.97;26.55;;;;;;;9.46;100.00;99074.66;5033968;28;20053;-68
2023/10/27 01:17:49;;;;;;;45.45;26.70;;;;;;;9.47;100.00;99075.53;5033992;28;20029;-68
2023/10/27 01:20:14;;;;;;;46.83;26.63;;;;;;;9.47;100.00;99072.91;5033975;28;20116;-69
2023/10/27 01:22:49;;;;;;;43.95;26.65;;;;;;;9.47;100.00;99073.75;5033672;28;20124;-69
2023/10/27 01:25:16;;;;;;;43.25;25.80;;;;;;;9.48;100.00;99074.63;5029735;28;20036;-69
2023/10/27 01:27:42;;;;;;;45.00;25.85;;;;;;;9.46;100.00;99068.53;5033913;28;20100;-69
2023/10/27 01:30:08;;;;;;;46.70;26.50;;;;;;;9.47;100.00;99072.91;5033784;28;20059;-69
2023/10/27 01:32:35;;;;;;;44.28;26.45;;;;;;;9.48;100.00;99071.97;5033600;28;20451;-69
2023/10/27 01:35:01;;;;;;;42.85;25.75;;;;;;;9.45;100.00;99065.03;5033687;28;20033;-69
2023/10/27 01:37:26;;;;;;;42.10;25.55;;;;;;;9.44;100.00;99068.56;5033367;28;20041;-69
2023/10/27 01:39:52;;;;;;;43.20;26.52;;;;;;;9.43;100.00;99065.03;5033541;28;20025;-67
2023/10/27 01:42:17;;;;;;;43.50;26.15;;;;;;;9.43;100.00;99065.03;5033566;28;20033;-69
2023/10/27 01:44:42;;;;;;;42.15;24.80;;;;;;;9.41;100.00;99063.34;5033451;28;20544;-69
2023/10/27 01:47:08;;;;;;;43.10;25.00;;;;;;;9.38;100.00;99058.97;5029487;28;20030;-69
2023/10/27 01:49:33;;;;;;;46.00;25.55;;;;;;;9.38;100.00;99058.13;5033071;28;20046;-69
2023/10/27 01:51:58;;;;;;;42.72;25.35;;;;;;;9.38;100.00;99061.63;5033179;28;20037;-69
2023/10/27 01:54:24;;;;;;;46.08;25.98;;;;;;;9.35;100.00;99056.41;5033313;28;20061;-69
2023/10/27 01:56:49;;;;;;;42.50;25.50;;;;;;;9.34;100.00;99057.28;5033173;28;20029;-69
2023/10/27 01:59:14;;;;;;;44.45;25.42;;;;;;;9.34;100.00;99052.03;5033030;28;20037;-70
2023/10/27 02:01:40;;;;;;;42.47;26.02;;;;;;;9.34;100.00;99056.44;5033214;28;20029;-69
2023/10/27 02:04:05;;;;;;;44.40;25.85;;;;;;;9.30;100.00;99050.34;5033045;28;20121;-69
2023/10/27 02:06:30;;;;;;;42.67;25.25;;;;;;;9.30;100.00;99054.75;5032992;28;20113;-68
2023/10/27 02:08:56;;;;;;;44.42;26.27;;;;;;;9.30;100.00;99047.69;5032987;28;20037;-69
2023/10/27 02:11:21;;;;;;;43.47;25.48;;;;;;;9.31;100.00;99046.81;5033010;28;20045;-69
2023/10/27 02:13:47;;;;;;;45.83;26.30;;;;;;;9.29;100.00;99043.34;5033064;28;20171;-69
2023/10/27 02:16:12;;;;;;;45.58;26.13;;;;;;;9.30;100.00;99044.22;5032925;28;20030;-69
2023/10/27 02:18:38;;;;;;;43.22;25.85;;;;;;;9.29;100.00;99040.72;5031865;28;20380;-69
2023/10/27 02:21:04;;;;;;;45.13;26.33;;;;;;;9.28;100.00;99041.59;5032948;28;20495;-69
2023/10/27 02:23:29;;;;;;;45.45;25.48;;;;;;;9.29;100.00;99039.81;5032654;28;20475;-69
2023/10/27 02:25:54;;;;;;;44.33;25.83;;;;;;;9.27;100.00;99036.34;5032786;28;20029;-69
2023/10/27 02:28:20;;;;;;;42.92;25.27;;;;;;;9.25;100.00;99036.38;5032947;28;20558;-69
2023/10/27 02:30:46;;;;;;;44.92;25.20;;;;;;;9.25;100.00;99028.47;5032630;28;20395;-69
2023/10/27 02:33:12;;;;;;;44.75;25.42;;;;;;;9.27;100.00;99039.00;5032740;28;20496;-70
2023/10/27 02:35:37;;;;;;;43.05;24.98;;;;;;;9.24;100.00;99026.72;5032626;28;20071;-69
2023/10/27 02:38:04;;;;;;;45.38;24.85;;;;;;;9.25;100.00;99033.75;5032631;28;20539;-68
2023/10/27 02:40:30;;;;;;;44.80;24.88;;;;;;;9.24;100.00;99029.38;5032484;28;20121;-69
2023/10/27 02:42:55;;;;;;;42.97;23.73;;;;;;;9.25;100.00;99031.13;5032737;28;20080;-68
2023/10/27 02:45:21;;;;;;;42.25;24.23;;;;;;;9.22;100.00;99028.53;5032432;28;20037;-70
2023/10/27 02:47:46;;;;;;;40.80;21.95;;;;;;;9.19;100.00;99032.09;5031343;28;20461;-69
2023/10/27 02:50:12;;;;;;;39.60;21.77;;;;;;;9.20;100.00;99022.41;5032455;28;20053;-69
2023/10/27 02:52:37;;;;;;;40.33;21.85;;;;;;;9.20;100.00;99025.03;5032416;28;20033;-68
2023/10/27 02:55:03;;;;;;;40.42;21.75;;;;;;;9.18;100.00;99019.81;5032646;28;20582;-68
2023/10/27 02:57:28;;;;;;;38.00;20.38;;;;;;;9.16;100.00;99023.34;5032492;28;20466;-67
2023/10/27 02:59:53;;;;;;;39.67;20.98;;;;;;;9.16;100.00;99020.72;5031153;28;20029;-69
2023/10/27 03:02:19;;;;;;;39.35;20.95;;;;;;;9.15;100.00;99013.75;5032775;28;20060;-69
2023/10/27 03:04:44;;;;;;;41.22;20.45;;;;;;;9.15;100.00;99008.47;5032362;28;20036;-68
2023/10/27 03:07:09;;;;;;;37.03;20.15;;;;;;;9.09;100.00;99014.72;5032376;28;20060;-67
2023/10/27 03:09:35;;;;;;;39.47;20.20;;;;;;;9.10;100.00;99008.56;5032419;28;20039;-68
2023/10/27 03:12:01;;;;;;;37.08;19.33;;;;;;;9.11;100.00;99010.28;5032245;28;20026;-68
2023/10/27 03:14:26;;;;;;;39.03;20.08;;;;;;;9.11;100.00;99012.06;5032210;28;20044;-68
2023/10/27 03:16:51;;;;;;;39.00;19.80;;;;;;;9.10;100.00;99010.31;5032452;28;20040;-69
2023/10/27 03:19:17;;;;;;;39.28;19.38;;;;;;;9.11;100.00;99004.13;5032166;28;20041;-69
2023/10/27 03:21:43;;;;;;;39.33;18.23;;;;;;;9.11;100.00;99004.13;5064106;28;20108;-68
2023/10/27 03:24:08;;;;;;;38.50;17.85;;;;;;;9.11;100.00;99006.78;5032797;28;20483;-66
2023/10/27 03:26:34;;;;;;;37.60;17.50;;;;;;;9.06;100.00;99005.09;5032052;28;20034;-66
2023/10/27 03:28:59;;;;;;;36.25;17.48;;;;;;;9.08;100.00;99002.44;5032075;28;20071;-66
2023/10/27 03:31:25;;;;;;;36.85;17.65;;;;;;;9.10;100.00;99002.41;5032606;28;20041;-66
2023/10/27 03:33:51;;;;;;;35.20;17.98;;;;;;;9.11;100.00;99006.78;5032224;28;20038;-66
2023/10/27 03:36:17;;;;;;;35.42;16.90;;;;;;;9.08;100.00;99005.06;5032239;28;20414;-68
2023/10/27 03:38:42;;;;;;;36.78;17.17;;;;;;;9.07;100.00;98998.94;5032251;28;20083;-66
2023/10/27 03:41:08;;;;;;;36.20;17.08;;;;;;;9.05;100.00;99003.34;5031818;28;20113;-66
2023/10/27 03:43:34;;;;;;;36.30;16.50;;;;;;;9.02;100.00;99000.78;5032133;28;20059;-66
2023/10/27 03:46:00;;;;;;;35.55;16.15;;;;;;;9.01;100.00;99001.69;5031896;28;20033;-66
2023/10/27 03:48:25;;;;;;;34.33;16.58;;;;;;;9.01;100.00;98998.16;5034641;28;20369;-66
2023/10/27 03:50:52;;;;;;;38.38;17.45;;;;;;;9.01;100.00;99000.81;5034417;28;20132;-65
2023/10/27 03:53:18;;;;;;;36.72;17.20;;;;;;;9.01;100.00;98995.53;5035445;28;20021;-66
2023/10/27 03:55:43;;;;;;;34.95;16.77;;;;;;;9.01;100.00;98999.06;5034325;28;20021;-66
2023/10/27 03:58:17;;;;;;;34.95;17.17;;;;;;;9.00;100.00;98997.31;5035426;28;20037;-66
2023/10/27 04:00:42;;;;;;;34.80;16.13;;;;;;;8.99;100.00;98990.28;5031853;28;20117;-66
2023/10/27 04:03:08;;;;;;;33.60;16.05;;;;;;;8.98;100.00;98995.59;5035329;28;20434;-66
2023/10/27 04:05:34;;;;;;;36.03;16.70;;;;;;;8.98;100.00;98990.31;5035566;28;20029;-66
2023/10/27 04:07:59;;;;;;;34.80;16.45;;;;;;;8.94;100.00;98984.25;5035367;28;20030;-66
2023/10/27 04:10:24;;;;;;;35.22;16.60;;;;;;;8.96;100.00;98985.09;5035094;28;20468;-66
2023/10/27 04:12:50;;;;;;;34.15;15.75;;;;;;;8.97;100.00;98989.47;5035218;28;20040;-66
2023/10/27 04:15:15;;;;;;;34.08;15.70;;;;;;;8.94;100.00;98989.53;5066928;28;20064;-66
2023/10/27 04:17:41;;;;;;;34.10;16.38;;;;;;;8.94;100.00;98989.53;5035017;28;20164;-66
2023/10/27 04:20:07;;;;;;;33.75;15.77;;;;;;;8.96;100.00;98986.84;5067160;28;20038;-66
2023/10/27 04:22:32;;;;;;;34.40;16.60;;;;;;;8.95;100.00;98988.59;5034986;28;20041;-66
2023/10/27 04:24:57;;;;;;;33.00;15.68;;;;;;;8.93;100.00;98993.03;5035128;28;20030;-67
2023/10/27 04:27:23;;;;;;;34.65;16.35;;;;;;;8.93;100.00;98985.13;5034994;28;20132;-66
2023/10/27 04:29:48;;;;;;;34.55;16.30;;;;;;;8.94;100.00;99000.06;5034688;28;20080;-66
2023/10/27 04:32:16;;;;;;;33.35;16.52;;;;;;;8.96;100.00;99000.03;5034745;28;20037;-67
2023/10/27 04:34:42;;;;;;;33.22;16.00;;;;;;;8.99;100.00;98997.34;5031133;28;20374;-67
2023/10/27 04:37:08;;;;;;;35.97;16.90;;;;;;;8.98;100.00;98993.81;5034576;28;20064;-66
2023/10/27 04:39:33;;;;;;;33.88;16.30;;;;;;;8.99;100.00;98994.69;5034541;28;20061;-67
2023/10/27 04:41:58;;;;;;;34.00;16.42;;;;;;;8.96;100.00;98990.34;5034707;28;20033;-66
2023/10/27 04:44:25;;;;;;;35.03;16.77;;;;;;;8.98;100.00;98992.94;5066444;28;20037;-66
2023/10/27 04:46:51;;;;;;;35.22;16.58;;;;;;;8.98;100.00;98993.81;5034729;28;20029;-70
2023/10/27 04:49:16;;;;;;;35.58;16.77;;;;;;;8.98;100.00;99004.34;5034196;28;20041;-70
2023/10/27 04:51:42;;;;;;;34.35;16.40;;;;;;;9.00;100.00;98994.66;5034364;28;20026;-70
2023/10/27 04:54:07;;;;;;;37.03;16.35;;;;;;;9.00;100.00;98996.41;5034517;28;20061;-69
2023/10/27 04:56:33;;;;;;;33.53;16.27;;;;;;;9.00;100.00;98989.41;5034291;28;20032;-70
2023/10/27 04:58:58;;;;;;;34.58;16.33;;;;;;;8.97;100.00;98989.47;5066135;28;20120;-70
2023/10/27 05:01:25;;;;;;;35.42;15.98;;;;;;;8.97;100.00;98986.81;5033384;28;20079;-69
2023/10/27 05:03:51;;;;;;;33.33;15.50;;;;;;;8.97;100.00;98986.81;5034327;28;20048;-69
2023/10/27 05:06:16;;;;;;;32.97;15.35;;;;;;;8.97;100.00;98980.66;5066219;28;20507;-66
2023/10/27 05:08:42;;;;;;;34.85;15.90;;;;;;;8.96;100.00;98977.19;5034483;28;20037;-70
2023/10/27 05:11:07;;;;;;;34.97;16.10;;;;;;;8.96;100.00;98982.44;5034246;28;20049;-69
2023/10/27 05:13:32;;;;;;;36.42;16.90;;;;;;;8.95;100.00;98978.06;5033841;28;20021;-69
2023/10/27 05:15:58;;;;;;;35.75;16.95;;;;;;;8.97;100.00;98978.03;5034041;28;20025;-69
2023/10/27 05:18:24;;;;;;;36.97;17.38;;;;;;;8.97;100.00;98983.31;5033935;28;20393;-70
2023/10/27 05:20:49;;;;;;;37.80;17.70;;;;;;;8.98;100.00;98975.38;5033687;28;20033;-70
2023/10/27 05:23:15;;;;;;;35.22;18.50;;;;;;;8.97;100.00;98973.66;5034038;28;20059;-69
2023/10/27 05:25:41;;;;;;;36.95;19.05;;;;;;;8.99;100.00;98977.09;5029629;28;20474;-70
2023/10/27 05:28:08;;;;;;;40.08;20.10;;;;;;;8.99;100.00;98973.63;5033873;28;20101;-68
2023/10/27 05:30:37;;;;;;;41.47;19.42;;;;;;;9.00;100.00;98981.50;5033750;28;20053;-70
2023/10/27 05:33:03;;;;;;;35.63;18.45;;;;;;;9.00;100.00;98972.69;5033703;28;20392;-70
2023/10/27 05:35:28;;;;;;;37.30;18.83;;;;;;;8.98;100.00;98967.47;5033628;28;20040;-70
2023/10/27 05:37:54;;;;;;;41.17;19.55;;;;;;;9.02;100.00;98973.56;5033678;28;20472;-70
2023/10/27 05:40:19;;;;;;;37.20;18.50;;;;;;;9.00;100.00;98968.31;5033482;28;20048;-69
2023/10/27 05:42:45;;;;;;;38.58;18.88;;;;;;;8.97;100.00;98971.00;5033624;28;20534;-69
2023/10/27 05:45:13;;;;;;;35.47;18.48;;;;;;;8.97;100.00;98960.47;5033140;28;20120;-70
2023/10/27 05:47:39;;;;;;;37.85;18.85;;;;;;;8.95;100.00;98967.53;5033458;28;20101;-70
2023/10/27 05:50:09;;;;;;;33.53;18.00;;;;;;;8.93;100.00;98960.53;5030254;28;20049;-74
2023/10/27 05:52:35;;;;;;;34.85;17.90;;;;;;;8.91;100.00;98963.19;5033188;28;20094;-74
2023/10/27 05:55:00;;;;;;;37.97;18.33;;;;;;;8.91;100.00;98971.09;5032657;28;20025;-71
2023/10/27 05:57:26;;;;;;;37.50;18.20;;;;;;;8.92;100.00;98972.84;5033296;28;20384;-69
2023/10/27 05:59:51;;;;;;;36.35;19.00;;;;;;;8.93;100.00;98965.81;5032772;28;20116;-69
2023/10/27 06:02:17;;;;;;;38.22;19.25;;;;;;;8.93;100.00;98965.81;5032906;28;20025;-67
2023/10/27 06:04:42;;;;;;;35.25;18.30;;;;;;;8.94;100.00;98972.81;5033006;28;20468;-68
2023/10/27 06:07:08;;;;;;;37.13;19.00;;;;;;;8.95;100.00;98975.44;5032645;28;20040;-65
2023/10/27 06:09:35;;;;;;;36.28;18.20;;;;;;;8.96;100.00;98971.91;5032504;28;20033;-66
2023/10/27 06:12:00;;;;;;;38.13;19.40;;;;;;;8.97;100.00;98984.19;5032963;28;20033;-67
2023/10/27 06:14:25;;;;;;;36.28;17.92;;;;;;;8.96;100.00;98982.44;5032629;28;20036;-68
2023/10/27 06:16:51;;;;;;;35.10;17.40;;;;;;;8.98;100.00;98980.63;5032985;28;20432;-68
2023/10/27 06:19:16;;;;;;;34.83;17.35;;;;;;;8.98;100.00;98979.78;5032684;28;20036;-67
2023/10/27 06:21:43;;;;;;;35.78;18.35;;;;;;;9.02;100.00;98982.31;5047845;28;20038;-68
2023/10/27 06:24:10;;;;;;;32.95;17.80;;;;;;;9.02;100.00;98978.81;5032653;28;20034;-66
2023/10/27 06:26:35;;;;;;;35.70;18.83;;;;;;;9.01;100.00;98974.44;5032504;28;20036;-67
2023/10/27 06:29:01;;;;;;;35.60;18.13;;;;;;;9.01;100.00;98985.00;5063942;28;20037;-72
2023/10/27 06:31:26;;;;;;;34.58;18.52;;;;;;;9.03;100.00;98980.56;5028994;28;20108;-72
2023/10/27 06:33:52;;;;;;;34.92;18.30;;;;;;;9.05;100.00;98989.31;5031318;28;20032;-78
2023/10/27 06:36:17;;;;;;;35.28;17.98;;;;;;;9.01;100.00;98985.88;5032366;28;20061;-78
2023/10/27 06:38:43;;;;;;;33.63;17.55;;;;;;;9.01;100.00;98991.16;5032133;28;20053;-71
2023/10/27 06:41:08;;;;;;;34.53;18.30;;;;;;;9.00;100.00;98985.88;5032412;28;20038;-73
2023/10/27 06:43:34;;;;;;;33.13;17.92;;;;;;;9.02;100.00;98992.00;5059812;28;20033;-74
2023/10/27 06:45:59;;;;;;;32.20;17.50;;;;;;;8.97;100.00;98984.19;5032463;28;20112;-71
2023/10/27 06:48:24;;;;;;;32.15;17.30;;;;;;;8.95;100.00;98993.88;5032573;28;20539;-78
2023/10/27 06:50:50;;;;;;;34.03;18.33;;;;;;;8.97;100.00;98992.09;5031948;28;20488;-76
2023/10/27 06:53:15;;;;;;;34.90;17.73;;;;;;;8.98;100.00;99003.50;5032481;28;20044;-73
2023/10/27 06:55:41;;;;;;;35.22;17.70;;;;;;;8.98;100.00;98992.94;5031879;28;20026;-74
2023/10/27 06:58:07;;;;;;;33.83;18.25;;;;;;;9.01;100.00;99001.69;5032303;28;20034;-74
2023/10/27 07:00:33;;;;;;;32.33;18.05;;;;;;;9.05;100.00;99000.72;5032249;28;20029;-72
2023/10/27 07:02:58;;;;;;;32.95;18.27;;;;;;;9.05;100.00;99003.34;5030932;28;20408;-72
2023/10/27 07:05:24;;;;;;;33.95;18.52;;;;;;;9.07;100.00;99005.94;5031914;28;20051;-71
2023/10/27 07:07:50;;;;;;;34.95;18.42;;;;;;;9.08;100.00;99008.56;5031971;28;20037;-71
2023/10/27 07:10:16;;;;;;;33.55;19.00;;;;;;;9.07;100.00;99006.84;5032050;28;20025;-75
2023/10/27 07:12:43;;;;;;;34.45;18.27;;;;;;;9.07;100.00;99000.69;5026738;28;20137;-74
2023/10/27 07:15:09;;;;;;;34.08;18.27;;;;;;;9.11;100.00;99009.41;5032240;28;20219;-77
2023/10/27 07:17:35;;;;;;;35.20;18.45;;;;;;;9.15;100.00;99004.03;5031805;28;20021;-72
2023/10/27 07:20:00;;;;;;;31.65;16.98;;;;;;;9.19;100.00;99023.34;5031687;28;20079;-71
2023/10/27 07:22:25;;;;;;;32.38;17.65;;;;;;;9.19;100.00;99016.28;5033447;28;20029;-68
2023/10/27 07:24:51;;;;;;;33.15;17.98;;;;;;;9.24;100.00;99019.69;5035704;28;20068;-69
2023/10/27 07:27:16;;;;;;;31.75;17.48;;;;;;;9.25;100.00;99020.56;5035963;28;20537;-69
2023/10/27 07:29:41;;;;;;;31.88;17.50;;;;;;;9.30;100.00;99023.97;5035785;28;20037;-68
2023/10/27 07:32:09;;;;;;;32.67;17.70;;;;;;;9.24;100.00;99021.47;5035280;28;20036;-69
2023/10/27 07:34:35;;;;;;;31.48;17.98;;;;;;;9.28;100.00;99024.94;5035863;28;20117;-69
2023/10/27 07:37:00;;;;;;;29.38;16.17;;;;;;;9.31;100.00;99032.78;5035551;28;20104;-69
2023/10/27 07:39:25;;;;;;;29.73;17.35;;;;;;;9.33;100.00;99037.09;5035801;28;20072;-70
2023/10/27 07:41:51;;;;;;;32.05;17.80;;;;;;;9.30;100.00;99038.94;5035711;28;20353;-69
2023/10/27 07:44:17;;;;;;;30.33;16.90;;;;;;;9.29;100.00;99042.47;5035156;28;20033;-67
2023/10/27 07:46:42;;;;;;;30.27;17.27;;;;;;;9.28;100.00;99032.84;5035427;28;20026;-67
2023/10/27 07:49:08;;;;;;;30.42;16.75;;;;;;;9.26;100.00;99038.09;5035530;28;20025;-67
2023/10/27 07:51:33;;;;;;;29.58;16.30;;;;;;;9.25;100.00;99041.66;5035468;28;20530;-66
2023/10/27 07:53:59;;;;;;;29.95;16.63;;;;;;;9.24;100.00;99045.19;5035447;28;20083;-67
2023/10/27 07:56:24;;;;;;;30.75;16.73;;;;;;;9.25;100.00;99041.66;5035601;28;20033;-66
2023/10/27 07:58:51;;;;;;;30.23;16.85;;;;;;;9.26;100.00;99051.28;5031651;28;20044;-68
2023/10/27 08:01:17;;;;;;;28.70;15.85;;;;;;;9.31;100.00;99044.19;5034900;28;20038;-67
2023/10/27 08:03:42;;;;;;;28.52;16.15;;;;;;;9.31;100.00;99048.59;5035303;28;20087;-68
2023/10/27 08:06:08;;;;;;;29.27;16.27;;;;;;;9.29;100.00;99053.91;5034803;28;20376;-66
2023/10/27 08:08:34;;;;;;;29.30;16.40;;;;;;;9.28;100.00;99053.94;5026638;28;20029;-67
2023/10/27 08:11:00;;;;;;;29.25;15.55;;;;;;;9.26;100.00;99059.19;5030212;28;20033;-69
2023/10/27 08:13:26;;;;;;;28.15;15.27;;;;;;;9.28;100.00;99057.41;5066982;28;20026;-73
2023/10/27 08:15:51;;;;;;;27.40;15.57;;;;;;;9.30;100.00;99044.22;5035079;28;20026;-70
2023/10/27 08:18:16;;;;;;;27.30;15.10;;;;;;;9.34;100.00;99046.75;5034753;28;20438;-72
2023/10/27 08:20:42;;;;;;;27.23;14.98;;;;;;;9.32;100.00;99047.66;5034602;28;20037;-72
2023/10/27 08:23:09;;;;;;;28.02;15.15;;;;;;;9.37;100.00;99051.09;5066908;28;20037;-74
2023/10/27 08:25:34;;;;;;;27.95;15.00;;;;;;;9.34;100.00;99061.72;5034978;28;20419;-70
2023/10/27 08:28:00;;;;;;;27.83;14.60;;;;;;;9.30;100.00;99065.31;5034898;28;20029;-69
2023/10/27 08:30:25;;;;;;;26.23;14.73;;;;;;;9.21;100.00;99068.97;5034708;28;20035;-69
2023/10/27 08:32:52;;;;;;;29.85;16.10;;;;;;;9.24;100.00;99074.19;5034070;28;20492;-69
2023/10/27 08:35:18;;;;;;;27.15;15.05;;;;;;;9.24;100.00;99079.47;5032900;28;20120;-70
2023/10/27 08:37:44;;;;;;;28.45;15.85;;;;;;;9.25;100.00;99079.44;5021695;28;20548;-71
2023/10/27 08:40:11;;;;;;;28.55;15.65;;;;;;;9.31;100.00;99085.50;5033740;28;20384;-69
2023/10/27 08:42:38;;;;;;;29.60;16.02;;;;;;;9.34;100.00;99083.66;5032977;28;20039;-66
2023/10/27 08:45:05;;;;;;;28.52;15.55;;;;;;;9.34;100.00;99077.53;5034478;28;20104;-69
2023/10/27 08:47:33;;;;;;;27.77;15.52;;;;;;;9.35;100.00;99082.78;5034014;28;20037;-67
2023/10/27 08:50:01;;;;;;;27.20;15.13;;;;;;;9.31;100.00;99089.00;5033794;28;20081;-67
2023/10/27 08:52:27;;;;;;;26.63;14.00;;;;;;;9.34;100.00;99086.31;5034471;28;20028;-71
2023/10/27 08:54:53;;;;;;;28.98;14.95;;;;;;;9.37;100.00;99094.16;5033535;28;20029;-72
2023/10/27 08:57:18;;;;;;;28.50;14.85;;;;;;;9.34;100.00;99093.34;5034110;28;20598;-68
2023/10/27 08:59:44;;;;;;;28.42;14.05;;;;;;;9.33;100.00;99087.19;5066192;28;20033;-73
2023/10/27 09:02:09;;;;;;;28.40;13.95;;;;;;;9.36;100.00;99087.16;5034040;28;20087;-74
2023/10/27 09:04:42;;;;;;;28.33;14.45;;;;;;;9.37;100.00;99093.31;5033790;28;20049;-71
2023/10/27 09:07:08;;;;;;;29.20;14.90;;;;;;;9.38;100.00;99087.13;5032506;28;20038;-69
2023/10/27 09:09:33;;;;;;;28.77;14.48;;;;;;;9.40;100.00;99087.97;5065631;28;20051;-69
2023/10/27 09:11:58;;;;;;;28.75;14.18;;;;;;;9.46;100.00;99086.97;5032546;28;20113;-69
2023/10/27 09:14:30;;;;;;;29.08;14.95;;;;;;;9.47;100.00;99096.63;5033944;28;20021;-68
2023/10/27 09:17:05;;;;;;;31.27;15.75;;;;;;;9.53;100.00;99099.16;5032129;28;20025;-68
2023/10/27 09:19:31;;;;;;;30.67;15.63;;;;;;;9.53;100.00;99099.16;5024509;28;20057;-68
2023/10/27 09:21:57;;;;;;;32.28;15.77;;;;;;;9.56;100.00;99094.69;5026778;28;20480;-68
2023/10/27 09:24:27;;;;;;;32.85;16.25;;;;;;;9.57;100.00;99090.28;5032600;28;20032;-68
2023/10/27 09:26:54;;;;;;;33.40;16.45;;;;;;;9.54;100.00;99085.06;5033804;28;20037;-69
2023/10/27 09:29:20;;;;;;;32.08;16.20;;;;;;;9.56;100.00;99088.53;5033547;28;20025;-68
2023/10/27 09:31:46;;;;;;;30.95;15.57;;;;;;;9.54;100.00;99101.75;5033275;28;20037;-70
2023/10/27 09:34:38;;;;;;;31.60;16.55;;;;;;;9.54;100.00;99098.25;5033259;28;20036;-70
2023/10/27 09:37:03;;;;;;;32.38;16.48;;;;;;;9.65;100.00;99088.34;5030356;28;20037;-69
2023/10/27 09:39:30;;;;;;;33.40;17.35;;;;;;;9.76;100.00;99099.56;5033210;28;20033;-72
2023/10/27 09:42:01;;;;;;;33.42;16.35;;;;;;;9.67;100.00;99083.94;5033182;28;20542;-73
2023/10/27 09:44:47;;;;;;;33.25;16.98;;;;;;;9.88;100.00;99106.38;5027056;28;20044;-69
2023/10/27 09:47:33;;;;;;;32.05;16.52;;;;;;;9.91;100.00;99100.16;5031717;28;20022;-69
2023/10/27 09:50:06;;;;;;;31.95;17.02;;;;;;;9.94;100.00;99102.72;5029678;28;20053;-69
2023/10/27 11:28:26;;;;;;;28.05;15.20;;;;;;;10.44;100.00;99114.00;5130300;27;20402;-72
2023/10/27 11:31:24;;;;;;;27.17;14.77;;;;;;;10.48;100.00;99111.31;5126177;28;20123;-71
2023/10/27 11:34:06;;;;;;;24.50;12.75;;;;;;;10.36;100.00;99120.38;5124262;28;20032;-71
2023/10/27 11:36:34;;;;;;;25.05;13.27;;;;;;;10.37;100.00;99115.06;5127875;27;20485;-73
2023/10/27 11:39:19;;;;;;;26.25;13.77;;;;;;;10.38;100.00;99123.84;5130813;27;20027;-71
2023/10/27 11:41:58;;;;;;;24.98;13.50;;;;;;;10.46;100.00;99121.91;5130853;27;20436;-71
2023/10/27 11:44:24;;;;;;;26.00;13.60;;;;;;;10.46;100.00;99120.13;5127007;28;20028;-71
2023/10/27 11:46:52;;;;;;;24.98;13.25;;;;;;;10.49;100.00;99115.69;5130469;27;20023;-71
2023/10/27 11:49:18;;;;;;;23.73;12.85;;;;;;;10.53;100.00;99110.28;5130393;27;20035;-71
2023/10/27 11:51:47;;;;;;;24.27;12.77;;;;;;;10.62;100.00;99118.00;5130584;27;20024;-72
2023/10/27 11:54:15;;;;;;;24.08;13.13;;;;;;;10.61;100.00;99118.03;5130173;27;20055;-71
2023/10/27 11:56:40;;;;;;;25.48;12.93;;;;;;;10.60;100.00;99109.25;5130141;27;20092;-70
2023/10/27 11:59:05;;;;;;;24.17;13.27;;;;;;;10.62;100.00;99119.78;5130334;27;20077;-70
2023/10/27 12:01:31;;;;;;;24.90;12.75;;;;;;;10.60;100.00;99117.19;5128856;27;20027;-70
2023/10/27 12:03:56;;;;;;;23.55;12.45;;;;;;;10.58;100.00;99120.75;5130069;27;20033;-70
2023/10/27 12:06:22;;;;;;;24.27;11.25;;;;;;;10.53;100.00;99120.84;5130210;27;20114;-74
2023/10/27 12:08:48;;;;;;;23.33;12.05;;;;;;;10.54;100.00;99121.72;5129968;27;20027;-71
2023/10/27 12:11:14;;;;;;;23.77;11.50;;;;;;;10.51;100.00;99116.50;5130141;27;20027;-71
2023/10/27 12:13:40;;;;;;;24.27;11.70;;;;;;;10.55;100.00;99119.03;5130030;28;20648;-75
2023/10/27 12:16:06;;;;;;;24.48;12.20;;;;;;;10.59;100.00;99125.13;5129774;27;20039;-74
2023/10/27 12:18:32;;;;;;;24.42;11.65;;;;;;;10.60;100.00;99133.03;5128672;28;20027;-73
2023/10/27 12:21:00;;;;;;;22.85;10.95;;;;;;;10.64;100.00;99131.16;5130264;27;20028;-72
2023/10/27 12:23:29;;;;;;;23.35;11.77;;;;;;;10.59;100.00;99133.94;5129674;27;20031;-73
2023/10/27 12:25:58;;;;;;;23.23;11.38;;;;;;;10.56;100.00;99135.78;5125680;28;20031;-74
2023/10/27 12:28:24;;;;;;;23.60;11.07;;;;;;;10.54;100.00;99142.84;5088408;28;20032;-77
2023/10/27 12:30:49;;;;;;;24.30;12.00;;;;;;;10.40;100.00;99140.53;5107169;28;20020;-77
2023/10/27 12:33:15;;;;;;;25.15;12.30;;;;;;;10.45;100.00;99142.16;5103595;28;20038;-72
2023/10/27 12:35:40;;;;;;;23.63;9.90;;;;;;;10.37;100.00;99152.03;5105980;28;20060;-72
2023/10/27 12:38:06;;;;;;;18.67;6.55;;;;;;;10.07;100.00;99137.66;5105745;27;20036;-73
2023/10/27 12:40:35;;;;;;;19.33;6.35;;;;;;;9.94;100.00;99135.25;5104405;28;20036;-72
2023/10/27 12:43:04;;;;;;;18.83;6.40;;;;;;;9.81;100.00;99146.13;5106825;28;20080;-71
2023/10/27 12:45:29;;;;;;;17.83;6.28;;;;;;;9.79;100.00;99142.66;5104105;28;20055;-80
2023/10/27 12:47:55;;;;;;;19.00;6.38;;;;;;;9.75;100.00;99140.03;5107267;28;20164;-79